Time;durP1;ratioP1;P1;durP2;ratioP2;P2;SDS_P1;SDS_P2;PMS_P1;PMS_P2;Temp;Humidity;BMP_temperature;BMP_pressure;BME280_temperature;BME280_humidity;BME280_pressure;Samples;Min_cycle;Max_cycle;Signal;HPM_P1;HPM_P2
2021/12/14 00:01:34;;;;;;;24.30;15.90;;;;;;;;;;5077054;28;20263;-72
2021/12/14 00:04:31;;;;;;;24.10;15.87;;;;;;;;;;5081932;28;20249;-75
2021/12/14 00:06:56;;;;;;;25.43;16.63;;;;;;;;;;5052514;28;20197;-73
2021/12/14 00:09:30;;;;;;;20.13;16.40;;;;;;;;;;5073929;28;20272;-72
2021/12/14 00:12:21;;;;;;;23.13;15.47;;;;;;;;;;5079113;28;20253;-72
2021/12/14 00:15:04;;;;;;;26.63;16.47;;;;;;;;;;5066087;28;20200;-72
2021/12/14 00:17:35;;;;;;;25.67;16.83;;;;;;;;;;5080387;28;20673;-72
2021/12/14 00:20:01;;;;;;;26.43;17.50;;;;;;;;;;5070640;28;20195;-74
2021/12/14 00:22:37;;;;;;;25.93;18.07;;;;;;;;;;5064828;28;20193;-74
2021/12/14 00:25:03;;;;;;;31.10;17.63;;;;;;;;;;5063392;28;20204;-74
2021/12/14 00:27:29;;;;;;;21.13;16.03;;;;;;;;;;5063496;28;20213;-73
2021/12/14 00:29:56;;;;;;;22.47;16.50;;;;;;;;;;5064349;28;20694;-73
2021/12/14 00:32:24;;;;;;;24.10;16.73;;;;;;;;;;5064159;28;20231;-74
2021/12/14 00:34:50;;;;;;;23.97;16.37;;;;;;;;;;5067032;28;20209;-71
2021/12/14 00:37:18;;;;;;;24.37;16.97;;;;;;;;;;5072208;28;20600;-73
2021/12/14 00:39:44;;;;;;;26.43;17.87;;;;;;;;;;5080567;28;21413;-73
2021/12/14 00:42:10;;;;;;;27.90;18.77;;;;;;;;;;5071048;28;20185;-73
2021/12/14 00:44:36;;;;;;;24.53;17.10;;;;;;;;;;5075338;28;20204;-73
2021/12/14 00:47:02;;;;;;;25.47;17.23;;;;;;;;;;5068421;28;20177;-73
2021/12/14 00:49:27;;;;;;;23.27;17.10;;;;;;;;;;5074583;28;20172;-73
2021/12/14 00:51:54;;;;;;;22.63;16.07;;;;;;;;;;5077178;28;20910;-74
2021/12/14 00:54:20;;;;;;;23.50;16.93;;;;;;;;;;5068689;28;20249;-74
2021/12/14 00:56:46;;;;;;;25.70;17.57;;;;;;;;;;5077339;28;20747;-74
2021/12/14 00:59:13;;;;;;;25.83;18.13;;;;;;;;;;5074341;28;20185;-73
2021/12/14 01:01:41;;;;;;;25.37;17.70;;;;;;;;;;5072340;28;20650;-74
2021/12/14 01:04:09;;;;;;;24.73;17.37;;;;;;;;;;5065795;28;20245;-73
2021/12/14 01:06:36;;;;;;;26.60;17.73;;;;;;;;;;5067046;28;20185;-73
2021/12/14 01:09:04;;;;;;;23.07;16.37;;;;;;;;;;5072995;28;20191;-73
2021/12/14 01:11:34;;;;;;;26.17;18.90;;;;;;;;;;5076853;28;20216;-73
2021/12/14 01:14:05;;;;;;;26.67;17.67;;;;;;;;;;5076347;28;20558;-73
2021/12/14 01:16:49;;;;;;;23.20;17.17;;;;;;;;;;5072302;28;20177;-73
2021/12/14 01:19:20;;;;;;;25.23;18.10;;;;;;;;;;5080882;28;20678;-74
2021/12/14 01:22:13;;;;;;;28.13;19.50;;;;;;;;;;5075106;28;20266;-73
2021/12/14 01:27:06;;;;;;;23.77;18.07;;;;;;;;;;5069686;28;20580;-72
2021/12/14 01:29:32;;;;;;;27.00;18.43;;;;;;;;;;5080229;28;20191;-72
2021/12/14 01:32:00;;;;;;;24.83;18.93;;;;;;;;;;5071762;28;20200;-72
2021/12/14 01:34:26;;;;;;;26.60;18.53;;;;;;;;;;5077813;28;20908;-73
2021/12/14 01:36:56;;;;;;;26.77;18.40;;;;;;;;;;5068716;28;20181;-73
2021/12/14 01:42:03;;;;;;;32.43;20.07;;;;;;;;;;5074502;28;20281;-74
2021/12/14 01:44:31;;;;;;;25.57;18.93;;;;;;;;;;5076935;28;20211;-72
2021/12/14 01:47:00;;;;;;;29.33;19.90;;;;;;;;;;5067196;28;20667;-73
2021/12/14 01:49:26;;;;;;;28.53;20.90;;;;;;;;;;5078483;28;20181;-73
2021/12/14 01:51:53;;;;;;;27.93;20.30;;;;;;;;;;5070335;28;20352;-73
2021/12/14 01:54:19;;;;;;;28.60;20.03;;;;;;;;;;5074338;28;20204;-72
2021/12/14 01:56:45;;;;;;;29.40;20.83;;;;;;;;;;5074157;28;20177;-72
2021/12/14 01:59:17;;;;;;;27.83;19.07;;;;;;;;;;5077825;28;20187;-72
2021/12/14 02:01:54;;;;;;;31.90;21.03;;;;;;;;;;5077245;28;20275;-72
2021/12/14 02:04:21;;;;;;;28.93;20.97;;;;;;;;;;5077915;28;20208;-72
2021/12/14 02:06:53;;;;;;;30.10;20.03;;;;;;;;;;5073269;28;20227;-71
2021/12/14 02:09:18;;;;;;;29.57;21.57;;;;;;;;;;5084040;28;20185;-73
2021/12/14 02:11:47;;;;;;;29.13;21.47;;;;;;;;;;5071830;28;20261;-72
2021/12/14 02:14:12;;;;;;;27.73;21.30;;;;;;;;;;5069297;28;20192;-72
2021/12/14 02:16:38;;;;;;;31.17;21.97;;;;;;;;;;5078393;28;20168;-72
2021/12/14 02:19:05;;;;;;;27.73;19.77;;;;;;;;;;5069868;28;20174;-73
2021/12/14 02:21:31;;;;;;;25.73;19.23;;;;;;;;;;5074447;28;20172;-73
2021/12/14 02:23:58;;;;;;;37.27;22.47;;;;;;;;;;5071206;28;20231;-73
2021/12/14 02:26:25;;;;;;;31.20;22.70;;;;;;;;;;5077581;28;20181;-72
2021/12/14 02:28:51;;;;;;;28.83;20.60;;;;;;;;;;5070671;28;20181;-72
2021/12/14 02:31:18;;;;;;;28.23;20.87;;;;;;;;;;5069158;28;20218;-73
2021/12/14 02:33:45;;;;;;;27.33;20.20;;;;;;;;;;5066182;28;20200;-72
2021/12/14 02:36:12;;;;;;;29.13;21.03;;;;;;;;;;5065010;28;20207;-73
2021/12/14 02:38:45;;;;;;;26.90;19.30;;;;;;;;;;5067633;22;20241;-77
2021/12/14 02:41:10;;;;;;;27.87;19.13;;;;;;;;;;5064534;28;20199;-77
2021/12/14 02:43:41;;;;;;;27.63;18.87;;;;;;;;;;5059773;28;20189;-77
2021/12/14 02:46:08;;;;;;;27.87;20.00;;;;;;;;;;5066935;28;20351;-78
2021/12/14 02:48:34;;;;;;;28.43;20.50;;;;;;;;;;5051414;28;20273;-78
2021/12/14 02:51:06;;;;;;;28.43;19.60;;;;;;;;;;5054797;28;20596;-78
2021/12/14 02:53:32;;;;;;;29.30;20.37;;;;;;;;;;5038001;28;20268;-78
2021/12/14 02:55:57;;;;;;;29.53;20.77;;;;;;;;;;5050297;28;20273;-78
2021/12/14 02:58:22;;;;;;;28.70;21.00;;;;;;;;;;5059825;28;20263;-78
2021/12/14 03:00:49;;;;;;;26.63;20.10;;;;;;;;;;5049542;28;20239;-77
2021/12/14 03:03:15;;;;;;;30.87;21.27;;;;;;;;;;5051933;28;20220;-78
2021/12/14 03:05:42;;;;;;;31.33;22.73;;;;;;;;;;5052284;28;20240;-78
2021/12/14 03:08:14;;;;;;;29.33;21.73;;;;;;;;;;5032823;28;20201;-78
2021/12/14 03:11:00;;;;;;;28.30;19.27;;;;;;;;;;5057821;28;20209;-76
2021/12/14 03:13:29;;;;;;;29.87;21.13;;;;;;;;;;5058480;28;20260;-76
2021/12/14 03:15:55;;;;;;;30.43;20.80;;;;;;;;;;5064233;28;20177;-78
2021/12/14 03:18:27;;;;;;;33.07;21.50;;;;;;;;;;5051876;28;20202;-78
2021/12/14 03:20:58;;;;;;;30.37;22.13;;;;;;;;;;5061304;28;20185;-78
2021/12/14 03:23:29;;;;;;;29.30;19.97;;;;;;;;;;5030790;28;20193;-78
2021/12/14 03:25:56;;;;;;;31.00;22.43;;;;;;;;;;5054306;28;20184;-77
2021/12/14 03:28:22;;;;;;;30.00;20.03;;;;;;;;;;5046093;28;20574;-77
2021/12/14 03:30:47;;;;;;;29.73;20.97;;;;;;;;;;5044459;28;20213;-76
2021/12/14 03:33:18;;;;;;;28.55;21.13;;;;;;;;;;5060841;28;20191;-77
2021/12/14 03:35:46;;;;;;;28.87;20.60;;;;;;;;;;5058593;28;20178;-77
2021/12/14 03:38:15;;;;;;;28.53;21.07;;;;;;;;;;5029597;28;20216;-77
2021/12/14 03:40:41;;;;;;;30.77;20.47;;;;;;;;;;5059010;28;21391;-78
2021/12/14 03:43:06;;;;;;;31.03;20.67;;;;;;;;;;5055583;28;20177;-78
2021/12/14 03:45:31;;;;;;;29.43;20.60;;;;;;;;;;5041343;28;20200;-76
2021/12/14 03:48:03;;;;;;;32.63;21.17;;;;;;;;;;5050294;28;20603;-76
2021/12/14 03:50:31;;;;;;;29.87;20.67;;;;;;;;;;5064374;28;20177;-78
2021/12/14 03:52:56;;;;;;;29.33;20.33;;;;;;;;;;5053793;28;20177;-75
2021/12/14 03:55:24;;;;;;;24.63;19.17;;;;;;;;;;5055876;28;20174;-76
2021/12/14 03:57:49;;;;;;;27.37;20.93;;;;;;;;;;5051237;28;20206;-76
2021/12/14 04:00:18;;;;;;;29.03;20.27;;;;;;;;;;5038908;28;20677;-78
2021/12/14 04:02:43;;;;;;;28.50;20.37;;;;;;;;;;5057292;28;20189;-77
2021/12/14 04:05:11;;;;;;;27.80;20.53;;;;;;;;;;5056825;28;20558;-77
2021/12/14 04:07:38;;;;;;;29.77;20.03;;;;;;;;;;5056535;28;21625;-77
2021/12/14 04:10:08;;;;;;;25.97;19.10;;;;;;;;;;5055451;28;20300;-77
2021/12/14 04:12:35;;;;;;;26.93;20.33;;;;;;;;;;5048431;28;20205;-77
2021/12/14 04:15:00;;;;;;;26.07;19.10;;;;;;;;;;5049318;28;20234;-77
2021/12/14 04:17:27;;;;;;;25.50;18.83;;;;;;;;;;5051195;28;20192;-76
2021/12/14 04:19:53;;;;;;;25.50;18.43;;;;;;;;;;5051886;28;20220;-77
2021/12/14 04:22:20;;;;;;;25.57;19.27;;;;;;;;;;5053744;28;20186;-77
2021/12/14 04:24:46;;;;;;;26.73;20.07;;;;;;;;;;5053464;28;20250;-77
2021/12/14 04:27:15;;;;;;;27.93;19.30;;;;;;;;;;5045287;28;20621;-77
2021/12/14 04:29:40;;;;;;;26.37;18.27;;;;;;;;;;5055206;28;20173;-77
2021/12/14 04:32:07;;;;;;;26.90;18.97;;;;;;;;;;5055931;28;20194;-76
2021/12/14 04:34:33;;;;;;;24.57;18.17;;;;;;;;;;5052968;28;20248;-77
2021/12/14 04:36:59;;;;;;;27.33;18.60;;;;;;;;;;5046768;28;20189;-78
2021/12/14 04:53:14;;;;;;;26.97;17.73;;;;;;;;;;5058456;28;20224;-76
2021/12/14 04:55:41;;;;;;;22.37;16.80;;;;;;;;;;5040006;28;20185;-77
2021/12/14 04:58:06;;;;;;;21.17;15.90;;;;;;;;;;5051288;28;20221;-77
2021/12/14 05:00:38;;;;;;;24.47;17.17;;;;;;;;;;5039548;28;20314;-77
2021/12/14 05:03:04;;;;;;;23.80;16.17;;;;;;;;;;5054791;28;20178;-77
2021/12/14 05:05:31;;;;;;;20.07;15.63;;;;;;;;;;5055248;28;20199;-77
2021/12/14 05:10:44;;;;;;;20.97;15.30;;;;;;;;;;5057038;28;20215;-77
2021/12/14 05:13:09;;;;;;;20.07;15.83;;;;;;;;;;5064121;28;20284;-78
2021/12/14 05:15:38;;;;;;;21.37;14.90;;;;;;;;;;5051245;28;20631;-78
2021/12/14 05:18:11;;;;;;;22.47;15.70;;;;;;;;;;5050807;28;20209;-79
2021/12/14 05:20:39;;;;;;;22.50;14.93;;;;;;;;;;5056975;28;20199;-78
2021/12/14 05:23:05;;;;;;;23.03;15.97;;;;;;;;;;5062833;28;20219;-76
2021/12/14 05:25:30;;;;;;;22.07;14.27;;;;;;;;;;5051485;28;20205;-76
2021/12/14 05:27:57;;;;;;;22.20;15.77;;;;;;;;;;5031185;28;20888;-77
2021/12/14 05:30:25;;;;;;;21.13;14.80;;;;;;;;;;5063921;28;20185;-77
2021/12/14 05:33:02;;;;;;;21.83;15.47;;;;;;;;;;5062038;28;20719;-76
2021/12/14 05:35:27;;;;;;;21.27;15.90;;;;;;;;;;5041368;28;20259;-76
2021/12/14 05:37:55;;;;;;;20.90;15.63;;;;;;;;;;5047437;28;20299;-76
2021/12/14 05:43:08;;;;;;;19.53;14.10;;;;;;;;;;5053045;28;20277;-76
2021/12/14 05:45:41;;;;;;;21.07;15.13;;;;;;;;;;5058208;28;20260;-76
2021/12/14 05:48:08;;;;;;;20.23;14.30;;;;;;;;;;5060346;28;20682;-76
2021/12/14 05:50:36;;;;;;;22.00;14.80;;;;;;;;;;5063237;28;20181;-78
2021/12/14 05:53:02;;;;;;;22.17;15.87;;;;;;;;;;5057229;28;20268;-78
2021/12/14 05:55:30;;;;;;;20.70;13.93;;;;;;;;;;5056016;28;20184;-77
2021/12/14 05:57:56;;;;;;;21.00;15.37;;;;;;;;;;5060664;28;20204;-77
2021/12/14 06:00:22;;;;;;;19.33;14.13;;;;;;;;;;5053605;28;21807;-77
2021/12/14 06:02:47;;;;;;;21.97;15.03;;;;;;;;;;5060810;28;20189;-78
2021/12/14 06:05:14;;;;;;;22.13;15.93;;;;;;;;;;5060770;28;20200;-77
2021/12/14 06:07:39;;;;;;;19.60;15.23;;;;;;;;;;5053987;28;20228;-78
2021/12/14 06:10:05;;;;;;;20.27;14.60;;;;;;;;;;5054664;28;20209;-77
2021/12/14 06:12:31;;;;;;;22.83;15.57;;;;;;;;;;5034807;28;20238;-77
2021/12/14 06:15:00;;;;;;;22.30;15.57;;;;;;;;;;5055786;28;20666;-77
2021/12/14 06:17:29;;;;;;;21.67;15.97;;;;;;;;;;5051524;28;20204;-77
2021/12/14 06:19:57;;;;;;;21.37;15.57;;;;;;;;;;5059284;28;20238;-78
2021/12/14 06:22:23;;;;;;;22.50;15.90;;;;;;;;;;5040400;28;20276;-77
2021/12/14 06:24:50;;;;;;;24.07;16.40;;;;;;;;;;5060539;28;20192;-77
2021/12/14 06:27:17;;;;;;;23.10;16.27;;;;;;;;;;5043280;28;20344;-77
2021/12/14 06:29:47;;;;;;;21.77;15.13;;;;;;;;;;5057389;28;20180;-77
2021/12/14 06:32:15;;;;;;;21.37;15.57;;;;;;;;;;5039523;28;20242;-77
2021/12/14 06:34:43;;;;;;;19.87;14.97;;;;;;;;;;5060008;28;20198;-77
2021/12/14 06:37:26;;;;;;;22.30;16.10;;;;;;;;;;5049319;28;20185;-77
2021/12/14 06:40:07;;;;;;;21.63;15.10;;;;;;;;;;5044750;28;20185;-77
2021/12/14 06:42:33;;;;;;;23.03;15.87;;;;;;;;;;5025259;28;20275;-77
2021/12/14 06:45:24;;;;;;;19.53;14.80;;;;;;;;;;5055000;28;20264;-78
2021/12/14 06:47:52;;;;;;;21.50;16.00;;;;;;;;;;5050775;28;20217;-79
2021/12/14 06:50:20;;;;;;;23.23;15.87;;;;;;;;;;5051985;28;20198;-77
2021/12/14 06:52:53;;;;;;;23.67;16.50;;;;;;;;;;5060272;28;20211;-77
2021/12/14 06:55:20;;;;;;;22.50;16.60;;;;;;;;;;5059488;28;20558;-77
2021/12/14 06:57:45;;;;;;;23.83;16.90;;;;;;;;;;5053251;28;20292;-77
2021/12/14 07:00:10;;;;;;;19.83;15.63;;;;;;;;;;5057155;28;20272;-76
2021/12/14 07:02:36;;;;;;;23.90;17.13;;;;;;;;;;5051008;28;20185;-77
2021/12/14 07:05:01;;;;;;;21.50;16.47;;;;;;;;;;5049574;28;20178;-77
2021/12/14 07:07:27;;;;;;;21.53;15.97;;;;;;;;;;5050443;28;20219;-77
2021/12/14 07:09:57;;;;;;;23.23;17.80;;;;;;;;;;5044667;28;20182;-77
2021/12/14 07:12:33;;;;;;;24.10;17.20;;;;;;;;;;5031301;28;20209;-77
2021/12/14 07:15:00;;;;;;;25.13;17.43;;;;;;;;;;5056860;28;20562;-77
2021/12/14 07:17:31;;;;;;;22.90;17.00;;;;;;;;;;5049424;28;20204;-77
2021/12/14 07:20:02;;;;;;;22.10;16.83;;;;;;;;;;5058740;28;20170;-78
2021/12/14 07:22:41;;;;;;;23.17;16.60;;;;;;;;;;5033407;28;20205;-76
2021/12/14 07:25:13;;;;;;;24.00;16.83;;;;;;;;;;5051851;28;20262;-77
2021/12/14 07:27:43;;;;;;;24.63;17.13;;;;;;;;;;5058681;28;20204;-77
2021/12/14 07:30:13;;;;;;;23.70;16.63;;;;;;;;;;5055924;28;20545;-77
2021/12/14 07:32:40;;;;;;;22.13;17.07;;;;;;;;;;5062901;28;20674;-76
2021/12/14 07:35:18;;;;;;;25.40;16.47;;;;;;;;;;5060072;28;20663;-76
2021/12/14 07:37:43;;;;;;;24.73;17.37;;;;;;;;;;5054538;28;20216;-75
2021/12/14 07:40:09;;;;;;;24.97;18.20;;;;;;;;;;5060800;28;20308;-75
2021/12/14 07:42:34;;;;;;;23.50;17.30;;;;;;;;;;5046491;28;20212;-77
2021/12/14 07:45:00;;;;;;;22.23;16.13;;;;;;;;;;5045372;28;20286;-78
2021/12/14 07:47:25;;;;;;;22.37;16.87;;;;;;;;;;5048977;28;20193;-77
2021/12/14 07:49:54;;;;;;;23.63;18.47;;;;;;;;;;5042692;28;20195;-77
2021/12/14 07:52:21;;;;;;;24.53;17.83;;;;;;;;;;5029469;28;20211;-77
2021/12/14 07:54:53;;;;;;;23.40;17.70;;;;;;;;;;5045543;28;20193;-77
2021/12/14 07:57:21;;;;;;;27.53;17.80;;;;;;;;;;5046883;28;20209;-77
2021/12/14 07:59:47;;;;;;;26.47;17.60;;;;;;;;;;5046493;28;20181;-78
2021/12/14 08:02:20;;;;;;;25.80;18.50;;;;;;;;;;5053413;28;20181;-77
2021/12/14 08:04:55;;;;;;;27.77;18.13;;;;;;;;;;5062533;28;20177;-78
2021/12/14 08:07:21;;;;;;;24.53;18.70;;;;;;;;;;5059862;28;20280;-77
2021/12/14 08:09:49;;;;;;;29.37;18.50;;;;;;;;;;5046016;28;20232;-78
2021/12/14 08:12:29;;;;;;;23.40;17.63;;;;;;;;;;5036859;28;22089;-78
2021/12/14 08:15:07;;;;;;;24.63;18.43;;;;;;;;;;5059020;28;20172;-78
2021/12/14 08:17:32;;;;;;;27.27;18.37;;;;;;;;;;5052658;28;20689;-78
2021/12/14 08:19:57;;;;;;;27.30;18.67;;;;;;;;;;5041652;28;20234;-77
2021/12/14 08:22:30;;;;;;;28.90;20.00;;;;;;;;;;5052095;28;20626;-78
2021/12/14 08:24:56;;;;;;;26.00;18.70;;;;;;;;;;5050055;28;20199;-77
2021/12/14 08:27:22;;;;;;;24.70;18.37;;;;;;;;;;5031537;28;20206;-78
2021/12/14 08:29:50;;;;;;;25.57;17.90;;;;;;;;;;5047195;28;20549;-78
2021/12/14 08:32:15;;;;;;;28.73;19.53;;;;;;;;;;5046306;28;20204;-77
2021/12/14 08:34:43;;;;;;;27.07;18.37;;;;;;;;;;5060838;28;20180;-77
2021/12/14 08:37:19;;;;;;;26.10;18.23;;;;;;;;;;5057792;28;20197;-77
2021/12/14 08:39:44;;;;;;;24.27;17.00;;;;;;;;;;5058047;28;20181;-77
2021/12/14 08:42:19;;;;;;;25.67;18.60;;;;;;;;;;5054392;28;20207;-77
2021/12/14 08:44:52;;;;;;;24.40;17.53;;;;;;;;;;5047624;28;20665;-78
2021/12/14 08:47:39;;;;;;;25.33;17.93;;;;;;;;;;5055965;28;20574;-77
2021/12/14 08:50:06;;;;;;;24.27;17.17;;;;;;;;;;5057799;28;20178;-77
2021/12/14 08:52:32;;;;;;;24.80;19.03;;;;;;;;;;5040406;28;20254;-77
2021/12/14 08:54:58;;;;;;;24.13;17.47;;;;;;;;;;5052293;28;20177;-77
2021/12/14 08:57:28;;;;;;;28.10;19.37;;;;;;;;;;5050151;28;20205;-76
2021/12/14 08:59:55;;;;;;;24.83;18.40;;;;;;;;;;5052427;28;20185;-77
2021/12/14 09:02:22;;;;;;;27.57;18.17;;;;;;;;;;5052698;28;20193;-76
2021/12/14 09:04:59;;;;;;;24.90;17.77;;;;;;;;;;5052378;28;20710;-77
2021/12/14 09:07:27;;;;;;;23.67;17.90;;;;;;;;;;5056494;28;20239;-77
2021/12/14 09:09:53;;;;;;;23.10;17.03;;;;;;;;;;5050269;28;20194;-77
2021/12/14 09:12:24;;;;;;;30.17;18.93;;;;;;;;;;5050631;28;20205;-77
2021/12/14 09:14:50;;;;;;;25.70;17.40;;;;;;;;;;5056687;28;20192;-77
2021/12/14 09:17:16;;;;;;;24.80;17.53;;;;;;;;;;5042862;28;20177;-76
2021/12/14 09:19:43;;;;;;;27.23;18.67;;;;;;;;;;5048157;28;20185;-77
2021/12/14 09:22:15;;;;;;;26.97;18.70;;;;;;;;;;5036016;28;20192;-77
2021/12/14 09:24:41;;;;;;;25.33;18.83;;;;;;;;;;5053325;28;20193;-77
2021/12/14 09:27:09;;;;;;;28.97;18.43;;;;;;;;;;5037264;28;20190;-78
2021/12/14 09:29:35;;;;;;;29.63;19.30;;;;;;;;;;5053968;28;20203;-77
2021/12/14 09:32:02;;;;;;;27.00;18.67;;;;;;;;;;5051046;28;20209;-77
2021/12/14 09:34:29;;;;;;;29.73;20.57;;;;;;;;;;5053580;28;20565;-77
2021/12/14 09:36:55;;;;;;;30.90;19.40;;;;;;;;;;5050594;28;20177;-77
2021/12/14 09:39:29;;;;;;;28.53;20.53;;;;;;;;;;5053338;28;20343;-78
2021/12/14 09:41:55;;;;;;;26.60;18.57;;;;;;;;;;5061667;28;20222;-78
2021/12/14 09:44:24;;;;;;;29.27;19.03;;;;;;;;;;5051451;28;20177;-77
2021/12/14 09:46:51;;;;;;;28.00;19.47;;;;;;;;;;5058012;28;20260;-77
2021/12/14 09:49:16;;;;;;;31.63;20.53;;;;;;;;;;5058693;28;20292;-77
2021/12/14 09:51:44;;;;;;;30.97;20.37;;;;;;;;;;5062524;28;20306;-78
2021/12/14 09:54:11;;;;;;;29.47;19.67;;;;;;;;;;5044143;28;20181;-77
2021/12/14 09:56:44;;;;;;;31.70;20.80;;;;;;;;;;5040559;28;20196;-77
2021/12/14 09:59:10;;;;;;;31.50;19.97;;;;;;;;;;5048498;28;20228;-78
2021/12/14 10:01:44;;;;;;;34.13;21.00;;;;;;;;;;5058304;28;20221;-76
2021/12/14 10:04:13;;;;;;;29.83;19.27;;;;;;;;;;5031491;28;20566;-76
2021/12/14 10:06:38;;;;;;;29.93;20.03;;;;;;;;;;5052918;28;20192;-76
2021/12/14 10:09:06;;;;;;;29.70;19.13;;;;;;;;;;5050015;28;20579;-76
2021/12/14 10:11:49;;;;;;;30.50;19.33;;;;;;;;;;5049653;28;20573;-76
2021/12/14 10:14:17;;;;;;;26.27;19.50;;;;;;;;;;5050016;28;21453;-76
2021/12/14 10:16:43;;;;;;;28.37;20.37;;;;;;;;;;5057805;28;20195;-78
2021/12/14 10:19:12;;;;;;;29.93;20.23;;;;;;;;;;5052749;28;20202;-76
2021/12/14 10:21:40;;;;;;;30.93;21.17;;;;;;;;;;5034994;28;20178;-77
2021/12/14 10:24:07;;;;;;;31.33;21.17;;;;;;;;;;5032861;28;20208;-77
2021/12/14 10:26:33;;;;;;;32.83;21.40;;;;;;;;;;5032819;28;20184;-77
2021/12/14 10:28:59;;;;;;;33.40;22.37;;;;;;;;;;5052543;28;20200;-77
2021/12/14 10:31:27;;;;;;;33.23;21.47;;;;;;;;;;5055960;28;20419;-77
2021/12/14 10:33:53;;;;;;;35.00;21.13;;;;;;;;;;5056596;28;20249;-77
2021/12/14 10:36:29;;;;;;;30.93;20.70;;;;;;;;;;5044921;28;20178;-77
2021/12/14 10:44:25;;;;;;;34.57;23.03;;;;;;;;;;5067040;28;20672;-76
2021/12/14 10:46:53;;;;;;;37.97;23.37;;;;;;;;;;5039199;28;20199;-78
2021/12/14 10:49:19;;;;;;;36.00;23.17;;;;;;;;;;5053657;28;20201;-76
2021/12/14 10:51:46;;;;;;;41.17;23.90;;;;;;;;;;5054443;28;20206;-77
2021/12/14 10:54:13;;;;;;;36.90;23.87;;;;;;;;;;5056030;28;20184;-76
2021/12/14 10:56:41;;;;;;;37.67;23.47;;;;;;;;;;5041299;28;20200;-77
2021/12/14 10:59:07;;;;;;;36.57;22.17;;;;;;;;;;5059541;28;20230;-78
2021/12/14 11:01:34;;;;;;;37.40;22.83;;;;;;;;;;5057475;28;20192;-77
2021/12/14 11:04:10;;;;;;;36.27;24.03;;;;;;;;;;5065928;28;20777;-77
2021/12/14 11:06:37;;;;;;;36.80;23.97;;;;;;;;;;5060793;28;20195;-78
2021/12/14 11:11:38;;;;;;;35.27;24.40;;;;;;;;;;5054766;28;20304;-77
2021/12/14 11:14:08;;;;;;;43.50;24.40;;;;;;;;;;5065378;28;20652;-76
2021/12/14 11:19:29;;;;;;;40.17;23.90;;;;;;;;;;5068902;28;20688;-79
2021/12/14 11:22:05;;;;;;;41.53;25.93;;;;;;;;;;5059211;28;20207;-77
2021/12/14 11:24:35;;;;;;;40.23;25.50;;;;;;;;;;5069346;28;20183;-77
2021/12/14 11:27:04;;;;;;;37.10;22.90;;;;;;;;;;5035080;28;20662;-77
2021/12/14 11:29:29;;;;;;;35.93;24.60;;;;;;;;;;5068736;28;20181;-77
2021/12/14 11:31:56;;;;;;;35.80;23.90;;;;;;;;;;5058519;28;20201;-77
2021/12/14 11:34:30;;;;;;;39.93;24.17;;;;;;;;;;5047736;28;20319;-77
2021/12/14 11:37:00;;;;;;;40.73;24.50;;;;;;;;;;5056079;28;20176;-77
2021/12/14 11:39:29;;;;;;;37.70;22.07;;;;;;;;;;5050022;28;20240;-77
2021/12/14 11:41:56;;;;;;;38.43;24.07;;;;;;;;;;5059247;28;20185;-78
2021/12/14 11:44:33;;;;;;;39.70;22.97;;;;;;;;;;5043825;28;20190;-77
2021/12/14 11:49:57;;;;;;;39.90;25.07;;;;;;;;;;5053595;28;20228;-78
2021/12/14 11:52:35;;;;;;;41.53;24.07;;;;;;;;;;5052221;28;20296;-77
2021/12/14 11:55:00;;;;;;;38.77;23.83;;;;;;;;;;5058080;28;20182;-78
2021/12/14 11:57:30;;;;;;;38.10;24.63;;;;;;;;;;5055224;28;20307;-77
2021/12/14 12:00:06;;;;;;;44.70;26.70;;;;;;;;;;5060913;28;20315;-78
2021/12/14 12:02:32;;;;;;;39.23;24.27;;;;;;;;;;5038612;28;20272;-78
2021/12/14 12:04:57;;;;;;;39.33;24.70;;;;;;;;;;5063811;28;20275;-78
2021/12/14 12:10:07;;;;;;;40.23;24.80;;;;;;;;;;5061821;28;20192;-78
2021/12/14 12:12:38;;;;;;;37.13;23.77;;;;;;;;;;5033392;28;20201;-77
2021/12/14 12:15:07;;;;;;;40.80;23.83;;;;;;;;;;5043487;28;20208;-77
2021/12/14 12:17:45;;;;;;;39.57;25.73;;;;;;;;;;5054061;28;20276;-77
2021/12/14 12:20:19;;;;;;;40.77;25.33;;;;;;;;;;5058973;28;20551;-77
2021/12/14 12:22:49;;;;;;;38.63;24.23;;;;;;;;;;5037004;28;20666;-77
2021/12/14 12:25:23;;;;;;;41.23;25.73;;;;;;;;;;5064725;28;20189;-77
2021/12/14 12:27:51;;;;;;;35.70;24.10;;;;;;;;;;5054942;28;20204;-78
2021/12/14 12:30:29;;;;;;;36.80;23.27;;;;;;;;;;5064348;28;20311;-79
2021/12/14 12:32:56;;;;;;;36.43;23.27;;;;;;;;;;5042402;28;20204;-77
2021/12/14 12:35:23;;;;;;;41.93;23.80;;;;;;;;;;5049277;28;20286;-77
2021/12/14 12:37:49;;;;;;;40.80;25.03;;;;;;;;;;5054077;28;20304;-78
2021/12/14 12:40:18;;;;;;;42.37;24.37;;;;;;;;;;5046165;28;20264;-78
2021/12/14 12:42:43;;;;;;;38.90;23.93;;;;;;;;;;5050251;28;20212;-79
2021/12/14 12:45:33;;;;;;;34.33;22.30;;;;;;;;;;5040268;28;20181;-79
2021/12/14 12:48:01;;;;;;;41.67;24.50;;;;;;;;;;5056126;28;20197;-77
2021/12/14 12:50:26;;;;;;;37.07;23.73;;;;;;;;;;5041952;28;20180;-77
2021/12/14 12:52:52;;;;;;;41.57;22.90;;;;;;;;;;5059597;28;20761;-78
2021/12/14 12:55:28;;;;;;;39.73;24.43;;;;;;;;;;5057350;28;20178;-77
2021/12/14 12:57:57;;;;;;;34.17;22.70;;;;;;;;;;5048654;28;20201;-77
2021/12/14 13:00:29;;;;;;;42.50;23.97;;;;;;;;;;5047396;28;20210;-78
2021/12/14 13:03:07;;;;;;;34.77;21.83;;;;;;;;;;5027794;28;20595;-78
2021/12/14 13:05:32;;;;;;;36.77;23.47;;;;;;;;;;5033940;28;20778;-77
2021/12/14 13:07:57;;;;;;;39.47;24.90;;;;;;;;;;5052453;28;20235;-77
2021/12/14 13:10:29;;;;;;;33.97;22.27;;;;;;;;;;5044915;28;20174;-77
2021/12/14 13:12:54;;;;;;;38.77;25.03;;;;;;;;;;5033979;28;20209;-75
2021/12/14 13:15:29;;;;;;;39.83;23.85;;;;;;;;;;5040131;28;20685;-76
2021/12/14 13:18:13;;;;;;;38.40;22.83;;;;;;;;;;5046553;28;20671;-78
2021/12/14 13:20:38;;;;;;;38.43;24.20;;;;;;;;;;5052239;28;20169;-78
2021/12/14 13:23:03;;;;;;;37.47;25.03;;;;;;;;;;5026744;28;20316;-78
2021/12/14 13:25:35;;;;;;;38.53;24.27;;;;;;;;;;5050387;28;20176;-77
2021/12/14 13:28:01;;;;;;;41.13;26.00;;;;;;;;;;5061708;28;20681;-77
2021/12/14 13:30:27;;;;;;;43.20;24.90;;;;;;;;;;5054686;28;20268;-78
2021/12/14 13:32:52;;;;;;;43.37;24.20;;;;;;;;;;5033830;28;20211;-78
2021/12/14 13:35:21;;;;;;;39.20;26.27;;;;;;;;;;5053903;28;20256;-77
2021/12/14 13:37:51;;;;;;;38.53;23.60;;;;;;;;;;5050240;28;20304;-78
2021/12/14 13:40:17;;;;;;;40.63;24.87;;;;;;;;;;5050406;28;20173;-78
2021/12/14 13:43:01;;;;;;;42.00;24.83;;;;;;;;;;5053095;28;20651;-78
2021/12/14 13:45:31;;;;;;;43.07;24.57;;;;;;;;;;5046346;28;20184;-77
2021/12/14 13:47:57;;;;;;;43.13;25.47;;;;;;;;;;5055722;28;20572;-78
2021/12/14 13:50:25;;;;;;;50.90;27.03;;;;;;;;;;5048223;28;20239;-78
2021/12/14 13:52:52;;;;;;;42.70;25.17;;;;;;;;;;5034749;28;20221;-77
2021/12/14 13:55:29;;;;;;;42.73;27.43;;;;;;;;;;5058589;28;20227;-77
2021/12/14 13:57:57;;;;;;;40.30;24.67;;;;;;;;;;5035453;28;20204;-77
2021/12/14 14:00:24;;;;;;;44.63;25.40;;;;;;;;;;5049851;28;20186;-78
2021/12/14 14:02:50;;;;;;;42.17;25.97;;;;;;;;;;5040982;28;20197;-77
2021/12/14 14:05:16;;;;;;;47.93;25.57;;;;;;;;;;5049424;28;20646;-78
2021/12/14 14:07:42;;;;;;;42.83;25.53;;;;;;;;;;5056903;28;20197;-78
2021/12/14 14:10:08;;;;;;;48.20;25.83;;;;;;;;;;5041295;28;20677;-79
2021/12/14 14:12:43;;;;;;;54.40;26.97;;;;;;;;;;5048869;28;20205;-78
2021/12/14 14:15:19;;;;;;;50.20;26.63;;;;;;;;;;5031939;28;20236;-78
2021/12/14 14:17:52;;;;;;;50.17;27.47;;;;;;;;;;5057364;28;20309;-78
2021/12/14 14:20:20;;;;;;;42.93;25.37;;;;;;;;;;5040761;28;20181;-78
2021/12/14 14:22:46;;;;;;;46.50;26.90;;;;;;;;;;5040791;28;20287;-77
2021/12/14 14:25:15;;;;;;;44.37;27.47;;;;;;;;;;5042369;28;20562;-79
2021/12/14 14:27:41;;;;;;;46.60;26.50;;;;;;;;;;5052219;28;20697;-78
2021/12/14 14:30:24;;;;;;;54.87;27.10;;;;;;;;;;5049247;28;20181;-77
2021/12/14 14:33:27;;;;;;;49.33;28.13;;;;;;;;;;5044692;28;20205;-77
2021/12/14 14:35:57;;;;;;;44.03;26.00;;;;;;;;;;5039839;28;20181;-77
2021/12/14 14:38:26;;;;;;;49.90;26.10;;;;;;;;;;5051613;28;20216;-77
2021/12/14 14:40:55;;;;;;;59.87;27.33;;;;;;;;;;5036103;28;20228;-77
2021/12/14 14:43:21;;;;;;;44.90;26.20;;;;;;;;;;5042550;28;20205;-76
2021/12/14 14:45:46;;;;;;;41.47;26.90;;;;;;;;;;5054912;28;20266;-77
2021/12/14 14:48:20;;;;;;;39.97;23.33;;;;;;;;;;5063925;28;20215;-78
2021/12/14 14:50:45;;;;;;;46.47;25.53;;;;;;;;;;5054237;28;20187;-76
2021/12/14 14:53:12;;;;;;;44.90;25.30;;;;;;;;;;5057087;28;20182;-76
2021/12/14 14:55:37;;;;;;;39.27;24.47;;;;;;;;;;5050066;28;20201;-76
2021/12/14 14:58:07;;;;;;;43.63;24.93;;;;;;;;;;5047263;28;20202;-77
2021/12/14 15:00:41;;;;;;;35.13;23.37;;;;;;;;;;5033743;28;20666;-76
2021/12/14 15:03:11;;;;;;;44.97;23.67;;;;;;;;;;5044459;28;20181;-77
2021/12/14 15:05:51;;;;;;;36.27;22.03;;;;;;;;;;5056436;28;20200;-77
2021/12/14 15:08:22;;;;;;;34.93;22.40;;;;;;;;;;5052344;28;20251;-77